Terminal Aerodrome Forecast
Issued by NWS

Home | Current Version | Previous Version | Text Only | Print | Product List | Glossary On
Versions: 1 2 3 4 5 6 7 8 9 10 11 12 13 14 15 16
852
FTUS43 KEAX 252325
TAFMKC
TAF
KMKC 252325Z 2600/2624 15010KT P6SM FEW100
     FM260700 15008KT P6SM VCSH BKN060
     FM260900 15008KT P6SM FEW100
     FM261500 25007KT P6SM BKN040
     FM261800 32007KT P6SM BKN040=

USA.gov is the U.S. government's official web portal to all federal, state and local government web resources and services.